createdAt,value
2022-08-03T00:01:49.356Z,74.21
2022-08-03T00:04:16.352Z,74.48
2022-08-03T00:06:43.001Z,74.37
2022-08-03T00:09:10.128Z,74.96
2022-08-03T00:11:37.169Z,75.10
2022-08-03T00:14:07.154Z,75.54
2022-08-03T00:16:34.183Z,75.92
2022-08-03T00:19:01.489Z,75.95
2022-08-03T00:21:28.817Z,76.34
2022-08-03T00:23:55.688Z,76.01
2022-08-03T00:26:22.518Z,76.27
2022-08-03T00:28:50.041Z,76.39
2022-08-03T00:31:22.258Z,76.24
2022-08-03T00:34:04.205Z,76.41
2022-08-03T00:36:30.976Z,76.36
2022-08-03T00:38:57.593Z,76.75
2022-08-03T00:41:24.337Z,76.78
2022-08-03T00:43:51.160Z,76.65
2022-08-03T00:46:21.793Z,76.73
2022-08-03T00:48:50.508Z,76.86
2022-08-03T00:51:18.033Z,77.13
2022-08-03T00:53:45.768Z,76.99
2022-08-03T00:56:16.958Z,76.75
2022-08-03T00:58:45.329Z,76.98
2022-08-03T01:01:12.771Z,76.87
2022-08-03T01:03:39.930Z,76.57
2022-08-03T01:06:18.506Z,76.55
2022-08-03T01:08:45.027Z,76.66
2022-08-03T01:11:32.292Z,76.65
2022-08-03T01:14:18.949Z,76.33
2022-08-03T01:16:57.006Z,76.51
2022-08-03T01:19:35.461Z,76.72
2022-08-03T01:22:11.020Z,76.82
2022-08-03T01:25:05.387Z,76.55
2022-08-03T01:27:44.199Z,76.50
2022-08-03T01:30:12.581Z,76.69
2022-08-03T01:33:00.804Z,76.74
2022-08-03T01:35:38.536Z,76.45
2022-08-03T01:38:22.283Z,77.13
2022-08-03T01:40:53.961Z,76.68
2022-08-03T01:44:27.005Z,76.59
2022-08-03T01:46:15.838Z,76.54
2022-08-03T01:48:44.681Z,76.69
2022-08-03T01:51:12.360Z,76.60
2022-08-03T01:53:42.848Z,76.30
2022-08-03T01:56:10.812Z,76.57
2022-08-03T01:58:39.699Z,76.78
2022-08-03T02:01:09.063Z,77.09
2022-08-03T02:03:58.064Z,77.04
2022-08-03T02:07:02.231Z,77.35
2022-08-03T02:09:19.921Z,77.24
2022-08-03T02:11:47.564Z,77.74
2022-08-03T02:14:16.044Z,77.59
2022-08-03T02:16:44.730Z,77.82
2022-08-03T02:19:11.967Z,77.98
2022-08-03T02:21:56.829Z,77.75
2022-08-03T02:24:26.546Z,77.74
2022-08-03T02:26:56.339Z,78.01
2022-08-03T02:29:39.349Z,78.04
2022-08-03T02:32:12.607Z,77.97
2022-08-03T02:34:42.411Z,78.02
2022-08-03T02:37:10.488Z,78.02
2022-08-03T02:39:39.819Z,78.04
2022-08-03T02:42:09.548Z,77.86
2022-08-03T02:44:40.434Z,77.87
2022-08-03T02:47:10.940Z,78.15
2022-08-03T02:49:50.962Z,78.43
2022-08-03T02:52:21.611Z,77.87
2022-08-03T02:54:51.218Z,77.84
2022-08-03T02:57:21.010Z,77.72
2022-08-03T02:59:47.777Z,77.53
2022-08-03T03:02:16.765Z,77.44
2022-08-03T03:05:51.792Z,77.35
2022-08-03T03:07:35.368Z,77.17
2022-08-03T03:10:22.053Z,77.13
2022-08-03T03:12:51.800Z,77.13
2022-08-03T03:15:18.966Z,77.32
2022-08-03T03:17:46.076Z,77.25
2022-08-03T03:20:29.741Z,77.63
2022-08-03T03:23:00.112Z,77.69
2022-08-03T03:25:28.160Z,77.82
2022-08-03T03:27:54.922Z,77.66
2022-08-03T03:30:25.048Z,77.42
2022-08-03T03:32:52.639Z,77.56
2022-08-03T03:35:19.784Z,77.64
2022-08-03T03:37:46.427Z,77.70
2022-08-03T03:40:14.449Z,77.92
2022-08-03T03:42:41.297Z,77.67
2022-08-03T03:45:08.855Z,77.57
2022-08-03T03:47:36.103Z,77.94
2022-08-03T03:50:04.648Z,77.40
2022-08-03T03:52:32.529Z,77.53
2022-08-03T03:55:01.302Z,77.67
2022-08-03T03:57:28.766Z,77.86
2022-08-03T03:59:55.348Z,78.04
2022-08-03T04:02:21.971Z,78.08
2022-08-03T04:05:07.138Z,78.45
2022-08-03T04:08:05.017Z,78.24
2022-08-03T04:10:52.853Z,78.32
2022-08-03T04:13:21.974Z,78.29
2022-08-03T04:15:50.580Z,78.36
2022-08-03T04:18:19.087Z,78.44
2022-08-03T04:20:48.813Z,78.58
2022-08-03T04:23:21.109Z,78.70
2022-08-03T04:25:49.972Z,78.61
2022-08-03T04:28:30.530Z,78.72
2022-08-03T04:30:58.993Z,78.53
2022-08-03T04:33:29.444Z,78.33
2022-08-03T04:36:01.526Z,78.24
2022-08-03T04:38:35.445Z,78.43
2022-08-03T04:41:02.378Z,78.14
2022-08-03T04:43:31.240Z,77.88
2022-08-03T04:45:59.321Z,77.81
2022-08-03T04:48:26.551Z,77.75
2022-08-03T04:50:54.553Z,77.24
2022-08-03T04:53:21.354Z,77.41
2022-08-03T04:55:48.356Z,77.21
2022-08-03T04:58:15.082Z,76.94
2022-08-03T05:00:42.315Z,76.91
2022-08-03T05:03:19.612Z,76.71
2022-08-03T05:05:52.361Z,76.53
2022-08-03T05:08:20.661Z,75.98
2022-08-03T05:10:55.637Z,76.16
2022-08-03T05:13:25.760Z,76.08
2022-08-03T05:15:52.605Z,75.52
2022-08-03T05:18:19.301Z,76.03
2022-08-03T05:20:45.946Z,75.60
2022-08-03T05:23:12.590Z,75.32
2022-08-03T05:25:39.367Z,75.26
2022-08-03T05:28:06.090Z,74.79
2022-08-03T05:30:33.797Z,74.49
2022-08-03T05:33:02.438Z,73.75
2022-08-03T05:36:02.676Z,73.51
2022-08-03T05:38:24.306Z,73.37
2022-08-03T05:40:57.460Z,72.97
2022-08-03T05:43:43.390Z,72.92
2022-08-03T05:46:13.013Z,72.60
2022-08-03T05:48:41.326Z,72.13
2022-08-03T05:51:11.710Z,71.82
2022-08-03T05:53:42.290Z,70.98
2022-08-03T05:56:15.361Z,70.39
2022-08-03T05:58:47.128Z,69.97
2022-08-03T06:01:15.310Z,69.72
2022-08-03T06:03:42.059Z,69.09
2022-08-03T06:06:08.846Z,68.52
2022-08-03T06:08:35.495Z,68.20
2022-08-03T06:11:02.176Z,67.78
2022-08-03T06:13:28.807Z,67.40
2022-08-03T06:15:55.363Z,67.43
2022-08-03T06:18:21.984Z,67.06
2022-08-03T06:20:49.468Z,66.74
2022-08-03T06:23:18.523Z,66.47
2022-08-03T06:25:45.457Z,66.23
2022-08-03T06:28:42.567Z,65.89
2022-08-03T06:31:01.187Z,65.14
2022-08-03T06:34:31.010Z,65.31
2022-08-03T06:36:15.173Z,64.65
2022-08-03T06:38:41.782Z,64.11
2022-08-03T06:41:08.487Z,63.49
2022-08-03T06:43:37.643Z,62.83
2022-08-03T06:46:05.581Z,62.51
2022-08-03T06:48:32.552Z,62.16
2022-08-03T06:50:59.395Z,61.07
2022-08-03T06:53:26.319Z,60.66
2022-08-03T06:55:55.011Z,59.50
2022-08-03T06:58:22.550Z,59.45
2022-08-03T07:00:49.401Z,58.15
2022-08-03T07:03:16.395Z,57.91
2022-08-03T07:05:46.725Z,56.79
2022-08-03T07:08:14.417Z,56.95
2022-08-03T07:10:40.994Z,56.58
2022-08-03T07:13:07.712Z,56.63
2022-08-03T07:15:54.116Z,56.48
2022-08-03T07:18:27.636Z,56.35
2022-08-03T07:20:57.757Z,55.97
2022-08-03T07:23:25.532Z,55.63
2022-08-03T07:25:52.250Z,54.88
2022-08-03T07:28:19.022Z,54.78
2022-08-03T07:30:45.661Z,54.44
2022-08-03T07:33:12.282Z,54.17
2022-08-03T07:35:39.307Z,54.07
2022-08-03T07:38:05.968Z,52.51
2022-08-03T07:40:32.594Z,51.77
2022-08-03T07:42:59.855Z,52.17
2022-08-03T07:45:26.759Z,51.64
2022-08-03T07:47:54.223Z,51.37
2022-08-03T07:50:22.048Z,51.35
2022-08-03T07:52:50.358Z,50.52
2022-08-03T07:55:19.529Z,50.79
2022-08-03T07:57:46.316Z,50.79
2022-08-03T08:00:16.979Z,50.01
2022-08-03T08:02:44.514Z,49.94
2022-08-03T08:05:12.598Z,49.40
2022-08-03T08:07:39.789Z,50.25
2022-08-03T08:10:08.412Z,50.10
2022-08-03T08:12:35.063Z,50.46
2022-08-03T08:15:02.157Z,49.99
2022-08-03T08:17:28.816Z,50.42
2022-08-03T08:19:55.448Z,49.73
2022-08-03T08:22:29.917Z,49.18
2022-08-03T08:24:58.541Z,48.81
2022-08-03T08:27:25.917Z,49.13
2022-08-03T08:29:56.364Z,48.39
2022-08-03T08:32:25.624Z,48.08
2022-08-03T08:34:52.226Z,48.10
2022-08-03T08:37:18.798Z,47.52
2022-08-03T08:39:45.374Z,47.29
2022-08-03T08:42:12.177Z,47.38
2022-08-03T08:44:39.293Z,47.06
2022-08-03T08:47:08.119Z,46.61
2022-08-03T08:49:39.201Z,46.27
2022-08-03T08:52:25.286Z,45.42
2022-08-03T08:55:05.215Z,44.84
2022-08-03T08:57:44.327Z,45.19
2022-08-03T09:00:14.957Z,45.26
2022-08-03T09:02:43.192Z,45.18
2022-08-03T09:05:16.137Z,44.81
2022-08-03T09:07:44.205Z,44.71
2022-08-03T09:10:13.790Z,44.14
2022-08-03T09:12:46.009Z,44.05
2022-08-03T09:15:28.613Z,44.33
2022-08-03T09:17:57.012Z,44.67
2022-08-03T09:20:25.649Z,44.65
2022-08-03T09:23:51.914Z,43.85
2022-08-03T09:25:59.988Z,42.86
2022-08-03T09:28:57.226Z,41.90
2022-08-03T09:31:43.645Z,41.10
2022-08-03T09:34:12.738Z,41.12
2022-08-03T09:36:40.769Z,40.63
2022-08-03T09:39:11.391Z,40.39
2022-08-03T09:41:47.380Z,39.89
2022-08-03T09:44:24.567Z,40.12
2022-08-03T09:46:56.612Z,40.74
2022-08-03T09:49:24.386Z,40.15
2022-08-03T09:52:31.765Z,40.08
2022-08-03T09:54:38.752Z,39.84
2022-08-03T09:57:05.428Z,39.89
2022-08-03T09:59:33.727Z,40.11
2022-08-03T10:02:00.881Z,40.79
2022-08-03T10:04:27.614Z,40.49
2022-08-03T10:07:10.821Z,40.08
2022-08-03T10:09:38.118Z,40.09
2022-08-03T10:12:12.731Z,40.02
2022-08-03T10:14:41.981Z,39.67
2022-08-03T10:17:09.778Z,38.96
2022-08-03T10:19:36.615Z,39.11
2022-08-03T10:22:29.744Z,38.52
2022-08-03T10:25:02.558Z,38.90
2022-08-03T10:27:34.306Z,38.06
2022-08-03T10:30:05.466Z,37.84
2022-08-03T10:32:38.321Z,37.92
2022-08-03T10:35:20.971Z,37.34
2022-08-03T10:38:10.435Z,37.05
2022-08-03T10:40:58.676Z,37.16
2022-08-03T10:43:49.194Z,37.05
2022-08-03T10:46:19.512Z,36.78
2022-08-03T10:48:48.669Z,36.67
2022-08-03T10:51:16.170Z,35.54
2022-08-03T10:53:54.986Z,35.90
2022-08-03T10:56:54.254Z,36.03
2022-08-03T10:59:46.161Z,35.51
2022-08-03T11:02:15.774Z,35.37
2022-08-03T11:04:42.906Z,34.92
2022-08-03T11:07:25.704Z,35.19
2022-08-03T11:09:54.404Z,33.76
2022-08-03T11:12:30.194Z,32.08
2022-08-03T11:15:04.571Z,32.32
2022-08-03T11:17:33.985Z,32.54
2022-08-03T11:20:13.653Z,32.07
2022-08-03T11:22:54.598Z,32.25
2022-08-03T11:25:54.054Z,32.34
2022-08-03T11:28:28.924Z,32.54
2022-08-03T11:30:55.626Z,32.41
2022-08-03T11:33:31.850Z,32.04
2022-08-03T11:36:00.533Z,31.64
2022-08-03T11:38:27.181Z,30.96
2022-08-03T11:40:54.539Z,30.91
2022-08-03T11:43:31.337Z,30.57
2022-08-03T11:46:06.982Z,30.62
2022-08-03T11:48:45.414Z,30.46
2022-08-03T11:51:20.845Z,31.29
2022-08-03T11:53:51.118Z,30.57
2022-08-03T11:56:17.713Z,30.99
2022-08-03T11:59:10.730Z,30.52
2022-08-03T12:01:36.233Z,30.33
2022-08-03T12:04:04.922Z,30.21
2022-08-03T12:06:31.572Z,29.22
2022-08-03T12:08:58.162Z,28.95
2022-08-03T12:11:24.785Z,28.51
2022-08-03T12:14:36.755Z,27.74
2022-08-03T12:16:38.144Z,28.75
2022-08-03T12:19:06.899Z,29.01
2022-08-03T12:21:33.720Z,28.85
2022-08-03T12:24:04.662Z,28.81
2022-08-03T12:26:54.519Z,28.57
2022-08-03T12:29:26.317Z,27.70
2022-08-03T12:31:53.233Z,27.63
2022-08-03T12:34:19.814Z,27.13
2022-08-03T12:36:54.479Z,26.94
2022-08-03T12:39:27.573Z,27.50
2022-08-03T12:41:55.358Z,27.44
2022-08-03T12:44:32.669Z,26.52
2022-08-03T12:47:00.366Z,26.22
2022-08-03T12:49:28.277Z,26.60
2022-08-03T12:51:54.937Z,28.39
2022-08-03T12:54:26.510Z,28.12
2022-08-03T12:56:59.547Z,27.90
2022-08-03T12:59:35.457Z,27.36
2022-08-03T13:02:16.274Z,27.11
2022-08-03T13:04:46.362Z,27.81
2022-08-03T13:07:14.457Z,27.35
2022-08-03T13:09:55.289Z,26.92
2022-08-03T13:12:24.597Z,26.89
2022-08-03T13:14:55.065Z,27.26
2022-08-03T13:17:21.995Z,27.39
2022-08-03T13:19:49.752Z,26.90
2022-08-03T13:22:20.152Z,26.81
2022-08-03T13:24:47.503Z,26.38
2022-08-03T13:28:01.432Z,26.41
2022-08-03T13:30:01.582Z,26.15
2022-08-03T13:32:28.233Z,26.66
2022-08-03T13:34:54.798Z,26.09
2022-08-03T13:37:21.744Z,26.07
2022-08-03T13:39:59.386Z,25.81
2022-08-03T13:42:32.143Z,26.16
2022-08-03T13:44:59.967Z,25.87
2022-08-03T13:47:27.567Z,25.09
2022-08-03T13:50:00.802Z,25.65
2022-08-03T13:52:33.762Z,25.92
2022-08-03T13:55:01.492Z,25.90
2022-08-03T13:58:04.252Z,24.88
2022-08-03T14:00:28.232Z,25.37
2022-08-03T14:03:06.664Z,25.19
2022-08-03T14:05:38.252Z,24.58
2022-08-03T14:08:06.842Z,23.68
2022-08-03T14:10:38.487Z,23.70
2022-08-03T14:13:05.953Z,23.29
2022-08-03T14:15:37.488Z,24.35
2022-08-03T14:18:12.852Z,24.55
2022-08-03T14:20:49.125Z,24.48
2022-08-03T14:23:18.969Z,24.33
2022-08-03T14:25:50.233Z,25.01
2022-08-03T14:28:18.829Z,24.67
2022-08-03T14:30:45.711Z,24.05
2022-08-03T14:33:12.342Z,24.42
2022-08-03T14:35:38.938Z,24.14
2022-08-03T14:38:05.699Z,24.12
2022-08-03T14:40:32.538Z,24.44
2022-08-03T14:42:59.203Z,23.70
2022-08-03T14:45:25.787Z,24.02
2022-08-03T14:50:10.403Z,24.15
2022-08-03T14:50:43.256Z,23.32
2022-08-03T14:53:12.448Z,23.55
2022-08-03T14:55:50.847Z,24.77
2022-08-03T14:58:21.133Z,25.31
2022-08-03T15:00:49.545Z,24.91
2022-08-03T15:03:20.374Z,23.76
2022-08-03T15:05:47.278Z,24.17
2022-08-03T15:08:13.905Z,23.94
2022-08-03T15:10:45.461Z,23.68
2022-08-03T15:13:13.604Z,24.42
2022-08-03T15:15:41.147Z,24.12
2022-08-03T15:18:07.985Z,23.56
2022-08-03T15:20:50.157Z,24.02
2022-08-03T15:23:17.359Z,23.75
2022-08-03T15:26:27.884Z,23.68
2022-08-03T15:28:32.301Z,23.55
2022-08-03T15:30:58.952Z,24.03
2022-08-03T15:33:25.617Z,23.71
2022-08-03T15:35:53.089Z,23.49
2022-08-03T15:38:22.982Z,24.04
2022-08-03T15:40:54.675Z,23.55
2022-08-03T15:43:22.779Z,23.57
2022-08-03T15:45:54.579Z,24.29
2022-08-03T15:48:36.380Z,23.92
2022-08-03T15:51:04.025Z,24.00
2022-08-03T15:53:30.721Z,24.05
2022-08-03T15:55:57.348Z,24.42
2022-08-03T15:59:03.204Z,24.08
2022-08-03T16:01:14.349Z,24.31
2022-08-03T16:03:44.360Z,23.79
2022-08-03T16:06:11.142Z,23.87
2022-08-03T16:08:37.747Z,23.80
2022-08-03T16:11:04.513Z,24.15
2022-08-03T16:14:13.460Z,24.24
2022-08-03T16:16:17.704Z,24.09
2022-08-03T16:18:44.279Z,24.32
2022-08-03T16:21:10.938Z,23.43
2022-08-03T16:23:47.097Z,24.23
2022-08-03T16:26:14.625Z,24.05
2022-08-03T16:28:41.501Z,24.17
2022-08-03T16:31:09.168Z,24.48
2022-08-03T16:33:36.249Z,23.76
2022-08-03T16:36:03.552Z,23.94
2022-08-03T16:38:30.575Z,24.60
2022-08-03T16:40:57.253Z,24.35
2022-08-03T16:43:24.667Z,24.14
2022-08-03T16:45:51.667Z,24.36
2022-08-03T16:48:18.790Z,23.99
2022-08-03T16:50:46.107Z,24.05
2022-08-03T16:53:16.788Z,24.09
2022-08-03T16:55:52.372Z,24.07
2022-08-03T16:58:41.359Z,24.37
2022-08-03T17:01:22.177Z,23.97
2022-08-03T17:04:03.096Z,23.79
2022-08-03T17:06:34.529Z,24.08
2022-08-03T17:09:03.587Z,24.22
2022-08-03T17:11:35.197Z,23.71
2022-08-03T17:14:07.768Z,24.13
2022-08-03T17:16:36.249Z,24.47
2022-08-03T17:19:06.726Z,23.85
2022-08-03T17:21:37.710Z,24.20
2022-08-03T17:24:19.787Z,23.62
2022-08-03T17:26:50.077Z,23.75
2022-08-03T17:29:22.946Z,23.88
2022-08-03T17:31:53.074Z,23.99
2022-08-03T17:34:20.828Z,24.17
2022-08-03T17:37:12.031Z,24.37
2022-08-03T17:39:59.829Z,24.24
2022-08-03T17:42:31.163Z,24.40
2022-08-03T17:45:02.585Z,23.87
2022-08-03T17:47:41.149Z,23.90
2022-08-03T17:50:25.050Z,22.81
2022-08-03T17:53:07.223Z,20.46
2022-08-03T17:55:55.777Z,19.38
2022-08-03T17:58:39.616Z,18.42
2022-08-03T18:02:00.846Z,18.01
2022-08-03T18:04:21.671Z,17.89
2022-08-03T18:06:58.559Z,18.53
2022-08-03T18:10:03.668Z,20.31
2022-08-03T18:12:26.664Z,22.46
2022-08-03T18:15:08.388Z,25.01
2022-08-03T18:17:55.178Z,26.65
2022-08-03T18:20:34.627Z,27.86
2022-08-03T18:23:05.870Z,28.78
2022-08-03T18:25:44.873Z,29.80
2022-08-03T18:28:18.902Z,30.64
2022-08-03T18:30:53.471Z,31.90
2022-08-03T18:34:19.088Z,31.94
2022-08-03T18:36:21.549Z,33.09
2022-08-03T18:38:53.911Z,33.82
2022-08-03T18:41:32.335Z,34.58
2022-08-03T18:44:08.104Z,35.00
2022-08-03T18:46:52.233Z,35.66
2022-08-03T18:49:25.558Z,35.86
2022-08-03T18:52:17.958Z,36.14
2022-08-03T18:55:02.490Z,36.91
2022-08-03T18:57:46.601Z,37.28
2022-08-03T19:00:24.552Z,37.66
2022-08-03T19:03:20.160Z,38.01
2022-08-03T19:06:15.936Z,37.99
2022-08-03T19:08:54.227Z,38.58
2022-08-03T19:12:11.184Z,38.87
2022-08-03T19:14:28.765Z,39.19
2022-08-03T19:17:08.589Z,39.31
2022-08-03T19:19:44.187Z,39.63
2022-08-03T19:22:15.818Z,39.79
2022-08-03T19:25:02.329Z,40.33
2022-08-03T19:27:31.210Z,40.46
2022-08-03T19:30:06.893Z,40.28
2022-08-03T19:32:40.991Z,40.59
2022-08-03T19:35:18.980Z,40.89
2022-08-03T19:37:46.599Z,41.20
2022-08-03T19:40:13.168Z,41.43
2022-08-03T19:42:44.570Z,41.94
2022-08-03T19:45:14.103Z,42.40
2022-08-03T19:47:56.519Z,42.56
2022-08-03T19:50:24.476Z,43.19
2022-08-03T19:52:52.875Z,43.13
2022-08-03T19:55:19.885Z,43.70
2022-08-03T19:57:49.267Z,43.57
2022-08-03T20:00:38.255Z,43.91
2022-08-03T20:03:06.666Z,44.43
2022-08-03T20:05:52.263Z,44.37
2022-08-03T20:08:21.879Z,45.05
2022-08-03T20:10:49.342Z,45.26
2022-08-03T20:13:20.049Z,45.28
2022-08-03T20:15:46.922Z,45.59
2022-08-03T20:18:16.854Z,45.95
2022-08-03T20:20:48.023Z,45.72
2022-08-03T20:23:18.596Z,46.39
2022-08-03T20:25:57.280Z,46.58
2022-08-03T20:28:50.519Z,47.19
2022-08-03T20:31:19.279Z,47.47
2022-08-03T20:33:49.288Z,47.60
2022-08-03T20:36:18.114Z,47.25
2022-08-03T20:38:47.700Z,47.16
2022-08-03T20:41:16.249Z,47.70
2022-08-03T20:43:43.345Z,47.76
2022-08-03T20:46:33.846Z,47.85
2022-08-03T20:51:53.182Z,48.14
2022-08-03T20:54:30.853Z,48.66
2022-08-03T20:57:03.589Z,49.26
2022-08-03T20:59:47.333Z,49.79
2022-08-03T21:02:19.838Z,49.97
2022-08-03T21:04:56.144Z,50.70
2022-08-03T21:07:24.442Z,51.13
2022-08-03T21:10:15.364Z,51.90
2022-08-03T21:13:04.521Z,52.28
2022-08-03T21:13:13.135Z,48.09
2022-08-03T21:16:02.401Z,52.81
2022-08-03T21:18:32.264Z,53.33
2022-08-03T21:21:01.093Z,53.63
2022-08-03T21:23:34.981Z,54.20
2022-08-03T21:26:12.956Z,54.42
2022-08-03T21:28:39.938Z,54.72
2022-08-03T21:31:06.757Z,54.79
2022-08-03T21:33:33.982Z,54.52
2022-08-03T21:36:02.789Z,54.69
2022-08-03T21:38:30.768Z,54.92
2022-08-03T21:40:57.626Z,55.11
2022-08-03T21:43:24.311Z,55.45
2022-08-03T21:45:58.952Z,55.88
2022-08-03T21:48:28.250Z,56.16
2022-08-03T21:50:55.010Z,56.08
2022-08-03T21:53:25.677Z,56.37
2022-08-03T21:56:16.913Z,56.49
2022-08-03T21:58:53.369Z,56.63
2022-08-03T22:01:23.841Z,56.84
2022-08-03T22:03:54.281Z,56.93
2022-08-03T22:06:27.126Z,57.17
2022-08-03T22:08:54.467Z,57.31
2022-08-03T22:11:21.597Z,57.42
2022-08-03T22:13:48.361Z,57.58
2022-08-03T22:16:16.160Z,57.98
2022-08-03T22:18:44.953Z,58.18
2022-08-03T22:21:14.989Z,58.32
2022-08-03T22:23:48.131Z,58.40
2022-08-03T22:26:35.227Z,58.60
2022-08-03T22:29:07.503Z,58.48
2022-08-03T22:31:57.434Z,58.70
2022-08-03T22:34:27.366Z,58.66
2022-08-03T22:36:56.551Z,58.54
2022-08-03T22:39:28.048Z,58.62
2022-08-03T22:41:57.500Z,58.86
2022-08-03T22:44:24.562Z,59.02
2022-08-03T22:46:51.938Z,58.92
2022-08-03T22:49:19.617Z,59.02
2022-08-03T22:51:47.347Z,59.15
2022-08-03T22:54:14.576Z,59.28
2022-08-03T22:56:41.909Z,59.43
2022-08-03T22:59:41.232Z,59.35
2022-08-03T23:02:01.476Z,59.16
2022-08-03T23:04:44.014Z,58.92
2022-08-03T23:07:15.122Z,59.08
2022-08-03T23:09:44.244Z,59.08
2022-08-03T23:12:14.917Z,58.94
2022-08-03T23:14:44.656Z,58.99
2022-08-03T23:17:12.281Z,59.16
2022-08-03T23:19:44.773Z,58.97
2022-08-03T23:22:29.329Z,58.92
2022-08-03T23:24:57.740Z,58.78
2022-08-03T23:27:24.512Z,58.55
2022-08-03T23:29:52.191Z,58.40
2022-08-03T23:32:21.026Z,57.41
2022-08-03T23:35:08.650Z,56.69
2022-08-03T23:38:04.258Z,56.10
2022-08-03T23:40:25.744Z,55.67
2022-08-03T23:42:52.828Z,55.43
2022-08-03T23:45:20.801Z,55.19
2022-08-03T23:47:50.220Z,55.37
2022-08-03T23:50:18.586Z,55.13
2022-08-03T23:52:47.925Z,54.76
2022-08-03T23:55:26.030Z,54.82
2022-08-03T23:58:00.581Z,54.80
